Grafton, WI (53024)

8:14 AM CDT on July 26, 2016 (GMT -0500)
Lions Den Gorge | | Change Station

Elev 709 ft 43.34 °N, 87.90 °W | Updated 31 seconds ago

Clear
Clear
77.1 °F
Feels Like 79 °F
N
4.0
Wind Variable Wind from WNW
Gusts 5.0 mph

Today
High -- | Low -- °F
--% Chance of Precip.
Yesterday
High -- | Low -- °F
Precip. -- in
Pressure 30.08 in
Visibility 10.0 miles
Clouds Clear
Heat Index 79 °F
Dew Point 69 °F
Humidity 76%
Rainfall 0.00 in
Snow Depth Not available.
5:36 AM 8:19 PM
Waning Gibbous, 55% visible
METAR KETB 261250Z AUTO 32003KT 10SM CLR 22/17 A3008 RMK AO2
Pressure 30.08 in
Visibility 10.0 miles
Clouds Clear
Heat Index 79 °F
Dew Point 69 °F
Humidity 76%
Rainfall 0.00 in
Snow Depth Not available.
5:36 AM 8:19 PM
Waning Gibbous, 55% visible
METAR KETB 261250Z AUTO 32003KT 10SM CLR 22/17 A3008 RMK AO2

10-Day Weather Forecast

Almanac

Astronomy

Jul. 26, 2016 Rise Set
Actual Time
Civil Twilight
Nautical Twilight
Astronomical Twilight
Moon
Length of Visible Light
Length of Day
Tomorrow will be .
, % of the Moon is Illuminated

Today's Extremes

State Highs State Lows

Community

WunderPhotos

Upload Photos

1,927,580 photos uploaded!

WunderBlog® & News

Nearby

Air Quality

  Air Quality AQ Index Pollutant
Not available.

Snow Depth

Station Depth Elevation

Earthquake Activity

City Distance Mag. Time & Date
Minimum magnitude displayed is 2.5.

Coastal Water Temperatures

Place Temperature

Stations

Nearby Weather Stations

Station Location Temp. Windchill Dew Point Humidity Wind Precip. Elev Updated Type
                   

Watches & Warnings

There are currently no watches in effect.